Time;durP1;ratioP1;P1;durP2;ratioP2;P2;SDS_P1;SDS_P2;PMS_P1;PMS_P2;Temp;Humidity;BMP_temperature;BMP_pressure;BME280_temperature;BME280_humidity;BME280_pressure;Samples;Min_cycle;Max_cycle;Signal;HPM_P1;HPM_P2
2021/10/26 00:00:53;;;;;;;19.67;11.27;;;;;;;-139.48;100.00;61774.03;5013430;28;20056;-69
2021/10/26 00:03:37;;;;;;;19.02;12.00;;;;;;;-139.48;100.00;61774.03;5012315;28;20052;-69
2021/10/26 00:06:21;;;;;;;15.73;11.20;;;;;;;-139.48;100.00;61774.03;5013359;28;20521;-70
2021/10/26 00:09:05;;;;;;;20.55;11.80;;;;;;;-139.48;100.00;61774.03;5013616;28;20049;-70
2021/10/26 00:11:50;;;;;;;20.95;12.40;;;;;;;-139.48;100.00;61774.03;5013578;28;20117;-69
2021/10/26 00:14:33;;;;;;;17.92;11.10;;;;;;;-139.48;100.00;61774.03;4998673;28;20084;-70
2021/10/26 00:17:17;;;;;;;18.38;11.43;;;;;;;-139.48;100.00;61774.03;5012407;28;20123;-69
2021/10/26 00:20:04;;;;;;;15.25;11.10;;;;;;;-139.48;100.00;61774.03;5016203;28;20136;-70
2021/10/26 00:22:48;;;;;;;16.63;11.40;;;;;;;-139.48;100.00;61774.03;5017051;28;20514;-70
2021/10/26 00:25:32;;;;;;;14.43;10.55;;;;;;;-139.48;100.00;61774.03;5016401;28;20080;-70
2021/10/26 00:28:16;;;;;;;14.13;10.30;;;;;;;-139.48;100.00;61774.03;5016335;28;20048;-70
2021/10/26 00:31:00;;;;;;;16.30;12.25;;;;;;;-139.48;100.00;61774.03;5002343;28;20060;-69
2021/10/26 00:33:44;;;;;;;20.95;13.20;;;;;;;-139.48;100.00;61774.03;5038550;22;20053;-66
2021/10/26 00:36:29;;;;;;;19.92;12.32;;;;;;;-139.48;100.00;61774.03;5016875;28;20053;-66
2021/10/26 00:39:13;;;;;;;19.20;12.82;;;;;;;-139.48;100.00;61774.03;5016909;28;20176;-66
2021/10/26 00:41:57;;;;;;;20.65;12.55;;;;;;;-139.48;100.00;61774.03;5002320;28;20052;-66
2021/10/26 00:44:42;;;;;;;21.13;13.35;;;;;;;-139.48;100.00;61774.03;5016009;28;20406;-66
2021/10/26 00:47:26;;;;;;;17.05;12.30;;;;;;;-139.48;100.00;61774.03;5002184;28;20553;-66
2021/10/26 00:50:10;;;;;;;17.70;11.93;;;;;;;-139.48;100.00;61774.03;5016692;28;20517;-66
2021/10/26 00:52:54;;;;;;;17.80;12.20;;;;;;;-139.48;100.00;61774.03;5016114;28;20052;-66
2021/10/26 00:55:38;;;;;;;17.48;12.23;;;;;;;-139.48;100.00;61774.03;5001876;28;20128;-66
2021/10/26 00:58:22;;;;;;;19.13;12.82;;;;;;;-139.48;100.00;61774.03;5015502;28;20114;-66
2021/10/26 01:01:06;;;;;;;15.25;10.70;;;;;;;-139.48;100.00;61774.03;5016667;28;20052;-66
2021/10/26 01:03:50;;;;;;;15.70;11.63;;;;;;;-139.48;100.00;61774.03;5015572;28;20096;-66
2021/10/26 01:06:35;;;;;;;16.63;11.65;;;;;;;-139.48;100.00;61774.03;5015305;28;20075;-66
2021/10/26 01:09:19;;;;;;;18.13;12.05;;;;;;;-139.48;100.00;61774.03;5016264;28;20052;-66
2021/10/26 01:12:03;;;;;;;17.50;11.32;;;;;;;-139.48;100.00;61774.03;5015479;28;20131;-66
2021/10/26 01:14:48;;;;;;;15.15;10.65;;;;;;;-139.48;100.00;61774.03;5016070;28;20114;-66
2021/10/26 01:17:32;;;;;;;17.10;11.15;;;;;;;-139.48;100.00;61774.03;5015012;28;20053;-66
2021/10/26 01:20:16;;;;;;;19.80;13.18;;;;;;;-139.48;100.00;61774.03;5016325;28;20048;-66
2021/10/26 01:23:00;;;;;;;15.70;11.32;;;;;;;-139.48;100.00;61774.03;5015221;28;20084;-64
2021/10/26 01:25:44;;;;;;;16.02;11.88;;;;;;;-139.48;100.00;61774.03;5016200;28;20053;-66
2021/10/26 01:28:28;;;;;;;18.27;11.85;;;;;;;-139.48;100.00;61774.03;5015895;28;20057;-66
2021/10/26 01:31:11;;;;;;;15.48;10.50;;;;;;;-139.48;100.00;61774.03;5014489;28;20052;-66
2021/10/26 01:33:55;;;;;;;20.67;12.70;;;;;;;-139.48;100.00;61774.03;5014721;28;20518;-66
2021/10/26 01:36:39;;;;;;;17.55;13.02;;;;;;;-139.48;100.00;61774.03;5001229;28;20053;-65
2021/10/26 01:39:23;;;;;;;19.05;13.13;;;;;;;-139.48;100.00;61774.03;5014980;28;20517;-66
2021/10/26 01:42:08;;;;;;;19.70;12.40;;;;;;;-139.48;100.00;61774.03;5000841;28;20080;-66
2021/10/26 01:44:52;;;;;;;16.90;12.82;;;;;;;-139.48;100.00;61774.03;5016383;28;20049;-66
2021/10/26 01:47:36;;;;;;;16.63;11.93;;;;;;;-139.48;100.00;61774.03;5015804;28;20045;-66
2021/10/26 01:50:20;;;;;;;19.27;12.70;;;;;;;-139.48;100.00;61774.03;5015833;28;20083;-66
2021/10/26 01:53:03;;;;;;;16.15;12.50;;;;;;;-139.48;100.00;61774.03;5000629;28;20048;-66
2021/10/26 01:55:48;;;;;;;20.35;13.55;;;;;;;-139.48;100.00;61774.03;5015623;28;20048;-66
2021/10/26 01:58:32;;;;;;;18.95;12.68;;;;;;;-139.48;100.00;61774.03;5014892;28;20056;-66
2021/10/26 02:01:16;;;;;;;20.67;13.55;;;;;;;-139.48;100.00;61774.03;5014576;28;20122;-65
2021/10/26 02:04:01;;;;;;;19.60;13.07;;;;;;;-139.48;100.00;61774.03;5000726;28;20522;-66
2021/10/26 02:06:45;;;;;;;17.23;13.38;;;;;;;-139.48;100.00;61774.03;5000634;28;20061;-66
2021/10/26 02:09:29;;;;;;;18.55;13.23;;;;;;;-139.48;100.00;61774.03;5015470;28;20119;-66
2021/10/26 02:12:13;;;;;;;20.23;13.75;;;;;;;-139.48;100.00;61774.03;5014388;28;20053;-66
2021/10/26 02:14:57;;;;;;;20.05;13.50;;;;;;;-139.48;100.00;61774.03;5014038;28;20048;-66
2021/10/26 02:17:41;;;;;;;18.77;13.75;;;;;;;-139.48;100.00;61774.03;5013949;28;20124;-66
2021/10/26 02:20:25;;;;;;;17.45;13.77;;;;;;;-139.48;100.00;61774.03;5014473;28;20091;-66
2021/10/26 02:23:09;;;;;;;18.17;12.93;;;;;;;-139.48;100.00;61774.03;5014164;28;20049;-66
2021/10/26 02:25:53;;;;;;;23.25;14.23;;;;;;;-139.48;100.00;61774.03;5015103;28;20497;-66
2021/10/26 02:28:37;;;;;;;21.42;13.43;;;;;;;-139.48;100.00;61774.03;5013801;28;20522;-66
2021/10/26 02:31:21;;;;;;;23.77;14.35;;;;;;;-139.48;100.00;61774.03;5015021;28;20068;-66
2021/10/26 02:34:05;;;;;;;23.30;15.35;;;;;;;-139.48;100.00;61774.03;5014517;28;20161;-66
2021/10/26 02:36:50;;;;;;;26.65;14.90;;;;;;;-139.48;100.00;61774.03;5013657;28;20569;-66
2021/10/26 02:39:34;;;;;;;21.05;14.23;;;;;;;-139.48;100.00;61774.03;5013809;28;20049;-66
2021/10/26 02:42:17;;;;;;;23.90;14.18;;;;;;;-139.48;100.00;61774.03;4999241;28;20052;-66
2021/10/26 02:45:03;;;;;;;20.58;14.43;;;;;;;-139.48;100.00;61774.03;5014683;28;20106;-66
2021/10/26 02:47:47;;;;;;;20.85;14.75;;;;;;;-139.48;100.00;61774.03;4999693;28;20045;-66
2021/10/26 02:50:31;;;;;;;26.45;15.48;;;;;;;-139.48;100.00;61774.03;5014651;28;20048;-65
2021/10/26 02:53:15;;;;;;;22.38;14.65;;;;;;;-139.48;100.00;61774.03;4999830;28;20128;-66
2021/10/26 02:55:59;;;;;;;24.55;14.73;;;;;;;-139.48;100.00;61774.03;5013473;28;20418;-66
2021/10/26 02:58:44;;;;;;;22.63;14.82;;;;;;;-139.48;100.00;61774.03;4999700;28;20553;-66
2021/10/26 03:01:27;;;;;;;26.48;15.95;;;;;;;-139.48;100.00;61774.03;5013400;28;20107;-66
2021/10/26 03:04:11;;;;;;;25.13;16.85;;;;;;;-139.48;100.00;61774.03;4999529;28;20049;-64
2021/10/26 03:06:56;;;;;;;24.58;16.35;;;;;;;-139.48;100.00;61774.03;5013372;28;20049;-66
2021/10/26 03:09:40;;;;;;;24.27;15.52;;;;;;;-139.48;100.00;61774.03;5013247;28;20052;-66
2021/10/26 03:12:24;;;;;;;25.45;15.05;;;;;;;-139.48;100.00;61774.03;5013282;28;20419;-66
2021/10/26 03:15:10;;;;;;;25.52;16.35;;;;;;;-139.48;100.00;61774.03;5013185;28;20523;-66
2021/10/26 03:17:55;;;;;;;21.98;15.30;;;;;;;-139.48;100.00;61774.03;5013199;28;20518;-65
2021/10/26 03:20:40;;;;;;;22.92;15.75;;;;;;;-139.48;100.00;61774.03;5014198;28;20096;-66
2021/10/26 03:23:25;;;;;;;19.90;14.45;;;;;;;-139.48;100.00;61774.03;5013757;28;20061;-66
2021/10/26 03:26:09;;;;;;;24.88;15.85;;;;;;;-139.48;100.00;61774.03;5012761;28;20514;-65
2021/10/26 03:28:53;;;;;;;26.92;15.75;;;;;;;-139.48;100.00;61774.03;5013047;28;20103;-66
2021/10/26 03:31:37;;;;;;;25.48;15.70;;;;;;;-139.48;100.00;61774.03;5012744;28;20052;-66
2021/10/26 03:34:22;;;;;;;21.90;15.43;;;;;;;-139.48;100.00;61774.03;5012782;28;20056;-65
2021/10/26 03:37:07;;;;;;;29.23;16.70;;;;;;;-139.48;100.00;61774.03;5012833;28;20161;-66
2021/10/26 03:39:55;;;;;;;24.98;15.77;;;;;;;-139.48;100.00;61774.03;5012922;28;20052;-66
2021/10/26 03:42:40;;;;;;;24.95;14.82;;;;;;;-139.48;100.00;61774.03;5012903;28;20049;-65
2021/10/26 03:45:24;;;;;;;23.67;15.32;;;;;;;-139.48;100.00;61774.03;5013449;28;20054;-66
2021/10/26 03:48:08;;;;;;;23.73;15.88;;;;;;;-139.48;100.00;61774.03;5012821;28;20045;-66
2021/10/26 03:50:52;;;;;;;24.55;15.35;;;;;;;-139.48;100.00;61774.03;5012739;28;20053;-66
2021/10/26 03:53:36;;;;;;;22.83;14.95;;;;;;;-139.48;100.00;61774.03;5012574;28;20526;-66
2021/10/26 03:56:20;;;;;;;25.48;14.95;;;;;;;-139.48;100.00;61774.03;5013347;28;20442;-66
2021/10/26 03:59:05;;;;;;;17.70;12.50;;;;;;;-139.48;100.00;61774.03;5012636;28;20095;-66
2021/10/26 04:01:49;;;;;;;16.42;12.02;;;;;;;-139.48;100.00;61774.03;5012362;28;20418;-64
2021/10/26 04:04:34;;;;;;;19.95;14.32;;;;;;;-139.48;100.00;61774.03;5012311;28;20411;-65
2021/10/26 04:07:19;;;;;;;23.02;15.40;;;;;;;-139.48;100.00;61774.03;5012327;28;20128;-65
2021/10/26 04:10:07;;;;;;;21.90;14.35;;;;;;;-139.48;100.00;61774.03;5013509;28;20052;-66
2021/10/26 04:12:51;;;;;;;19.88;13.75;;;;;;;-139.48;100.00;61774.03;5012545;28;20060;-66
2021/10/26 04:15:35;;;;;;;21.95;14.68;;;;;;;-139.48;100.00;61774.03;5012425;28;20071;-65
2021/10/26 04:18:19;;;;;;;21.73;14.68;;;;;;;-139.48;100.00;61774.03;5012752;28;20079;-65
2021/10/26 04:21:03;;;;;;;18.92;13.88;;;;;;;-139.48;100.00;61774.03;4998643;28;20091;-66
2021/10/26 04:23:50;;;;;;;23.25;14.23;;;;;;;-139.48;100.00;61774.03;5012326;28;20052;-65
2021/10/26 04:26:34;;;;;;;21.48;14.52;;;;;;;-139.48;100.00;61774.03;4998695;28;20072;-66
2021/10/26 04:29:18;;;;;;;21.65;14.00;;;;;;;-139.48;100.00;61774.03;5013123;28;20419;-66
2021/10/26 04:32:02;;;;;;;21.85;14.55;;;;;;;-139.48;100.00;61774.03;4998614;28;20057;-66
2021/10/26 04:34:45;;;;;;;24.35;13.85;;;;;;;-139.48;100.00;61774.03;4998257;28;20053;-66
2021/10/26 04:37:29;;;;;;;25.77;14.20;;;;;;;-139.48;100.00;61774.03;4998424;28;20414;-66
2021/10/26 04:40:13;;;;;;;21.50;15.10;;;;;;;-139.48;100.00;61774.03;5012300;28;20111;-66
2021/10/26 04:42:59;;;;;;;25.42;14.27;;;;;;;-139.48;100.00;61774.03;5012295;28;20509;-66
2021/10/26 04:45:43;;;;;;;19.67;14.60;;;;;;;-139.48;100.00;61774.03;4998146;28;20053;-66
2021/10/26 04:48:27;;;;;;;18.10;11.45;;;;;;;-139.48;100.00;61774.03;5013157;28;20053;-65
2021/10/26 04:51:11;;;;;;;21.70;12.52;;;;;;;-139.48;100.00;61774.03;5011945;28;20088;-66
2021/10/26 04:53:55;;;;;;;24.15;14.52;;;;;;;-139.48;100.00;61774.03;5012002;28;20145;-65
2021/10/26 04:56:39;;;;;;;22.75;14.25;;;;;;;-139.48;100.00;61774.03;5012044;28;20053;-65
2021/10/26 04:59:23;;;;;;;15.38;11.10;;;;;;;-139.48;100.00;61774.03;5012151;28;20411;-66
2021/10/26 05:02:07;;;;;;;14.60;10.40;;;;;;;-139.48;100.00;61774.03;5011829;28;20088;-66
2021/10/26 05:04:51;;;;;;;21.83;14.13;;;;;;;-139.48;100.00;61774.03;5012613;28;20578;-66
2021/10/26 05:07:35;;;;;;;19.90;12.57;;;;;;;-139.48;100.00;61774.03;5016315;28;20468;-66
2021/10/26 05:10:19;;;;;;;18.35;11.75;;;;;;;-139.48;100.00;61774.03;5015575;28;20044;-66
2021/10/26 05:13:03;;;;;;;17.90;11.38;;;;;;;-139.48;100.00;61774.03;5015333;28;20096;-66
2021/10/26 05:15:47;;;;;;;20.42;13.43;;;;;;;-139.48;100.00;61774.03;5016444;28;20545;-66
2021/10/26 05:18:35;;;;;;;18.95;12.07;;;;;;;-139.48;100.00;61774.03;5015333;28;20433;-66
2021/10/26 05:21:21;;;;;;;22.95;13.68;;;;;;;-139.48;100.00;61774.03;5015150;28;20057;-65
2021/10/26 05:24:05;;;;;;;17.95;12.93;;;;;;;-139.48;100.00;61774.03;5014914;28;20110;-66
2021/10/26 05:26:51;;;;;;;19.92;12.23;;;;;;;-139.48;100.00;61774.03;5015004;28;20041;-66
2021/10/26 05:29:38;;;;;;;18.65;12.18;;;;;;;-139.48;100.00;61774.03;5015112;28;20132;-65
2021/10/26 05:32:22;;;;;;;20.10;12.32;;;;;;;-139.48;100.00;61774.03;5015172;28;20056;-66
2021/10/26 05:35:07;;;;;;;17.25;11.48;;;;;;;-139.48;100.00;61774.03;5014683;28;20065;-66
2021/10/26 05:37:50;;;;;;;20.90;10.93;;;;;;;-139.48;100.00;61774.03;5014913;28;20047;-65
2021/10/26 05:40:35;;;;;;;18.40;11.93;;;;;;;-139.48;100.00;61774.03;5014655;28;20053;-66
2021/10/26 05:43:19;;;;;;;21.50;12.05;;;;;;;-139.48;100.00;61774.03;5014891;28;20088;-66
2021/10/26 05:46:03;;;;;;;18.90;11.95;;;;;;;-139.48;100.00;61774.03;5015542;28;20052;-66
2021/10/26 05:48:48;;;;;;;18.33;11.38;;;;;;;-139.48;100.00;61774.03;5015090;28;20467;-66
2021/10/26 05:51:32;;;;;;;16.60;11.57;;;;;;;-139.48;100.00;61774.03;5014791;28;20104;-66
2021/10/26 05:54:16;;;;;;;17.70;12.52;;;;;;;-139.48;100.00;61774.03;5014713;28;20156;-65
2021/10/26 05:56:59;;;;;;;18.83;12.23;;;;;;;-139.48;100.00;61774.03;5000575;28;20044;-66
2021/10/26 05:59:43;;;;;;;20.45;11.48;;;;;;;-139.48;100.00;61774.03;5015914;28;20044;-66
2021/10/26 06:02:27;;;;;;;16.35;10.48;;;;;;;-139.48;100.00;61774.03;5015311;28;20056;-65
2021/10/26 06:05:11;;;;;;;14.68;10.77;;;;;;;-139.48;100.00;61774.03;5014134;28;20053;-66
2021/10/26 06:07:56;;;;;;;25.33;12.07;;;;;;;-139.48;100.00;61774.03;5015183;28;20045;-66
2021/10/26 06:10:45;;;;;;;16.98;10.95;;;;;;;-139.48;100.00;61774.03;5014631;28;20140;-66
2021/10/26 06:13:32;;;;;;;14.57;10.88;;;;;;;-139.48;100.00;61774.03;5014189;28;20045;-66
2021/10/26 06:16:16;;;;;;;20.38;11.38;;;;;;;-139.48;100.00;61774.03;5015096;28;20131;-66
2021/10/26 06:19:00;;;;;;;18.35;11.70;;;;;;;-139.48;100.00;61774.03;5014320;28;20533;-65
2021/10/26 06:21:44;;;;;;;18.50;11.00;;;;;;;-139.48;100.00;61774.03;5015152;28;20096;-66
2021/10/26 06:24:28;;;;;;;18.90;11.32;;;;;;;-139.48;100.00;61774.03;5014985;28;20099;-66
2021/10/26 06:27:12;;;;;;;16.77;10.60;;;;;;;-139.48;100.00;61774.03;5014135;28;20049;-66
2021/10/26 06:29:59;;;;;;;22.10;12.20;;;;;;;-139.48;100.00;61774.03;5014044;28;20053;-66
2021/10/26 06:32:43;;;;;;;16.33;11.57;;;;;;;-139.48;100.00;61774.03;5014000;28;20407;-65
2021/10/26 06:38:13;;;;;;;22.30;12.02;;;;;;;-139.48;100.00;61774.03;4974830;28;20085;-68
2021/10/26 06:40:56;;;;;;;16.13;11.80;;;;;;;-139.48;100.00;61774.03;4975639;28;20427;-68
2021/10/26 06:43:40;;;;;;;18.27;11.23;;;;;;;-139.48;100.00;61774.03;4975046;28;20109;-68
2021/10/26 06:46:24;;;;;;;15.73;11.88;;;;;;;-139.48;100.00;61774.03;4942181;29;20155;-68
2021/10/26 06:49:09;;;;;;;17.35;11.88;;;;;;;-139.48;100.00;61774.03;4955133;29;20046;-68
2021/10/26 06:51:53;;;;;;;21.00;11.48;;;;;;;-139.48;100.00;61774.03;4955110;29;20054;-68
2021/10/26 06:54:37;;;;;;;22.45;11.65;;;;;;;-139.48;100.00;61774.03;4955977;28;20424;-68
2021/10/26 06:57:21;;;;;;;21.35;12.20;;;;;;;-139.48;100.00;61774.03;4955065;29;20070;-68
2021/10/26 07:00:06;;;;;;;21.17;11.65;;;;;;;-139.48;100.00;61774.03;4955217;29;20469;-68
2021/10/26 07:02:52;;;;;;;23.33;12.77;;;;;;;-139.48;100.00;61774.03;4955196;29;20054;-68
2021/10/26 07:05:37;;;;;;;19.00;12.38;;;;;;;-139.48;100.00;61774.03;4954877;28;20109;-68
2021/10/26 07:08:21;;;;;;;24.30;13.35;;;;;;;-139.48;100.00;61774.03;4955085;29;20463;-68
2021/10/26 07:11:06;;;;;;;19.83;13.15;;;;;;;-139.48;100.00;61774.03;4955343;29;20464;-68
2021/10/26 07:13:50;;;;;;;21.50;12.77;;;;;;;-139.48;100.00;61774.03;4954937;28;20142;-68
2021/10/26 07:16:34;;;;;;;23.33;13.32;;;;;;;-139.48;100.00;61774.03;4955730;29;20090;-68
2021/10/26 07:19:18;;;;;;;22.92;14.05;;;;;;;-139.48;100.00;61774.03;4954948;29;20062;-68
2021/10/26 07:22:02;;;;;;;20.95;13.90;;;;;;;-139.48;100.00;61774.03;4954876;29;20066;-68
2021/10/26 07:24:55;;;;;;;26.70;13.10;;;;;;;-139.48;100.00;61774.03;4954726;28;20054;-68
2021/10/26 07:27:40;;;;;;;23.60;13.35;;;;;;;-139.48;100.00;61774.03;4955177;28;20106;-68
2021/10/26 07:30:29;;;;;;;28.08;13.75;;;;;;;-139.48;100.00;61774.03;4955426;29;20425;-68
2021/10/26 07:33:20;;;;;;;21.63;12.65;;;;;;;-139.48;100.00;61774.03;4954411;29;20050;-68
2021/10/26 07:36:07;;;;;;;19.70;13.50;;;;;;;-139.48;100.00;61774.03;4954372;28;20106;-68
2021/10/26 07:38:58;;;;;;;25.95;14.23;;;;;;;-139.48;100.00;61774.03;4955293;29;20113;-68
2021/10/26 07:41:42;;;;;;;21.98;13.88;;;;;;;-139.48;100.00;61774.03;4954306;29;20054;-68
2021/10/26 07:44:29;;;;;;;25.25;13.98;;;;;;;-139.48;100.00;61774.03;4955395;28;20054;-68
2021/10/26 07:47:16;;;;;;;24.35;14.43;;;;;;;-139.48;100.00;61774.03;4955464;29;20097;-68
2021/10/26 07:49:59;;;;;;;22.40;14.25;;;;;;;-139.48;100.00;61774.03;4954617;29;20058;-68
2021/10/26 07:52:43;;;;;;;20.23;13.80;;;;;;;-139.48;100.00;61774.03;4954407;29;20101;-68
2021/10/26 07:55:27;;;;;;;28.20;14.10;;;;;;;-139.48;100.00;61774.03;4955277;28;20053;-68
2021/10/26 07:58:11;;;;;;;22.83;15.70;;;;;;;-139.48;100.00;61774.03;4955271;29;20086;-68
2021/10/26 08:00:55;;;;;;;22.75;13.23;;;;;;;-139.48;100.00;61774.03;4954633;29;20062;-68
2021/10/26 08:03:40;;;;;;;27.45;15.38;;;;;;;-139.48;100.00;61774.03;4954290;29;20058;-68
2021/10/26 08:06:25;;;;;;;22.35;14.88;;;;;;;-139.48;100.00;61774.03;4955294;29;20509;-68
2021/10/26 08:09:10;;;;;;;19.95;14.38;;;;;;;-139.48;100.00;61774.03;4953975;29;20121;-68
2021/10/26 08:11:53;;;;;;;25.67;15.57;;;;;;;-139.48;100.00;61774.03;4953922;29;20054;-68
2021/10/26 08:14:39;;;;;;;24.17;14.65;;;;;;;-139.48;100.00;61774.03;4953936;28;20053;-69
2021/10/26 08:17:23;;;;;;;21.20;14.38;;;;;;;-139.48;100.00;61774.03;4953727;29;20127;-68
2021/10/26 08:20:07;;;;;;;19.42;13.30;;;;;;;-139.48;100.00;61774.03;4954477;29;20058;-68
2021/10/26 08:22:52;;;;;;;20.73;13.05;;;;;;;-139.48;100.00;61774.03;4954984;29;20046;-68
2021/10/26 08:25:39;;;;;;;23.08;13.90;;;;;;;-139.48;100.00;61774.03;4954665;28;20121;-68
2021/10/26 08:28:24;;;;;;;21.92;14.20;;;;;;;-139.48;100.00;61774.03;4954085;29;20083;-68
2021/10/26 08:31:18;;;;;;;20.70;13.27;;;;;;;-139.48;100.00;61774.03;4953793;29;20050;-68
2021/10/26 08:36:58;;;;;;;20.17;13.45;;;;;;;-139.48;100.00;61774.03;4953819;29;20054;-68
2021/10/26 08:39:44;;;;;;;20.95;13.00;;;;;;;-139.48;100.00;61774.03;4954569;28;20065;-68
2021/10/26 08:42:29;;;;;;;19.08;11.80;;;;;;;-139.48;100.00;61774.03;4957715;29;20138;-68
2021/10/26 08:45:12;;;;;;;;;;;;;;;-139.48;100.00;61774.03;4957754;28;20480;-68
2021/10/26 08:48:00;;;;;;;20.33;10.40;;;;;;;-139.48;100.00;61774.03;4957599;29;19930;-68
2021/10/26 08:50:46;;;;;;;15.70;10.65;;;;;;;-139.48;100.00;61774.03;4957777;29;20054;-68
2021/10/26 08:53:30;;;;;;;15.13;9.85;;;;;;;-139.48;100.00;61774.03;4957352;29;20062;-68
2021/10/26 08:56:15;;;;;;;13.57;9.15;;;;;;;-139.48;100.00;61774.03;4958554;29;20042;-68
2021/10/26 08:59:00;;;;;;;16.88;10.95;;;;;;;-139.48;100.00;61774.03;4957479;29;20066;-68
2021/10/26 09:01:50;;;;;;;13.05;9.13;;;;;;;-139.48;100.00;61774.03;4958353;29;20089;-68
2021/10/26 09:04:36;;;;;;;17.77;9.20;;;;;;;-139.48;100.00;61774.03;4957244;28;20050;-69
2021/10/26 09:07:21;;;;;;;17.30;9.32;;;;;;;-139.48;100.00;61774.03;4957292;29;20113;-68
2021/10/26 09:10:15;;;;;;;14.93;9.00;;;;;;;-139.48;100.00;61774.03;4958255;29;20051;-68
2021/10/26 09:16:47;;;;;;;12.98;8.43;;;;;;;-139.48;100.00;61774.03;4957877;29;20170;-69
2021/10/26 09:19:42;;;;;;;16.90;8.02;;;;;;;-139.48;100.00;61774.03;4957157;29;20054;-68
2021/10/26 09:22:27;;;;;;;14.93;7.50;;;;;;;-139.48;100.00;61774.03;4956567;29;20090;-68
2021/10/26 09:25:13;;;;;;;12.73;6.90;;;;;;;-139.48;100.00;61774.03;4956686;28;20058;-68
2021/10/26 09:28:17;;;;;;;13.00;6.53;;;;;;;-139.48;100.00;61774.03;4956561;29;20054;-69
2021/10/26 09:31:08;;;;;;;11.07;5.82;;;;;;;-139.48;100.00;61774.03;4956820;29;20409;-69
2021/10/26 09:34:15;;;;;;;9.52;5.57;;;;;;;-139.48;100.00;61774.03;4956803;28;20093;-69
2021/10/26 09:37:02;;;;;;;8.30;5.88;;;;;;;-139.48;100.00;61774.03;4956231;29;20050;-69
2021/10/26 09:39:56;;;;;;;9.90;6.72;;;;;;;-139.48;100.00;61774.03;4956704;29;20062;-69
2021/10/26 09:42:44;;;;;;;11.65;6.68;;;;;;;-139.48;100.00;61774.03;4956327;29;20085;-69
2021/10/26 09:45:31;;;;;;;8.50;6.53;;;;;;;-139.48;100.00;61774.03;4956504;28;20547;-69
2021/10/26 09:48:20;;;;;;;15.18;7.53;;;;;;;-139.48;100.00;61774.03;4956535;29;20472;-69
2021/10/26 09:51:09;;;;;;;12.50;7.93;;;;;;;-139.48;100.00;61774.03;4956949;28;20049;-68
2021/10/26 09:53:58;;;;;;;17.05;7.65;;;;;;;-139.48;100.00;61774.03;4942699;28;20085;-67
2021/10/26 09:57:01;;;;;;;10.68;8.05;;;;;;;-139.48;100.00;61774.03;4957141;29;20050;-68
2021/10/26 09:59:51;;;;;;;12.32;7.68;;;;;;;-139.48;100.00;61774.03;4956291;29;20098;-68
2021/10/26 10:02:35;;;;;;;11.90;8.00;;;;;;;-139.48;100.00;61774.03;4955986;29;20106;-68
2021/10/26 10:05:29;;;;;;;14.20;7.57;;;;;;;-139.48;100.00;61774.03;4956435;28;20135;-68
2021/10/26 10:08:19;;;;;;;10.83;7.83;;;;;;;-139.48;100.00;61774.03;4956925;29;20049;-69
2021/10/26 10:11:06;;;;;;;12.32;7.43;;;;;;;-139.48;100.00;61774.03;4957149;29;20061;-69
2021/10/26 10:13:53;;;;;;;13.57;7.90;;;;;;;-139.48;100.00;61774.03;4956983;28;20050;-69
2021/10/26 10:16:37;;;;;;;12.60;7.95;;;;;;;-139.48;100.00;61774.03;4956009;29;20046;-68
2021/10/26 10:19:21;;;;;;;11.65;7.60;;;;;;;-139.48;100.00;61774.03;4955704;29;20090;-69
2021/10/26 10:22:07;;;;;;;10.18;6.88;;;;;;;-139.48;100.00;61774.03;4956946;29;20058;-69
2021/10/26 10:24:55;;;;;;;11.65;8.10;;;;;;;-139.48;100.00;61774.03;4955480;28;20098;-68
2021/10/26 10:27:43;;;;;;;13.20;8.60;;;;;;;-139.48;100.00;61774.03;4956804;29;20058;-69
2021/10/26 10:30:27;;;;;;;16.08;9.68;;;;;;;-139.48;100.00;61774.03;4955544;29;20515;-69
2021/10/26 10:33:11;;;;;;;13.82;9.35;;;;;;;-139.48;100.00;61774.03;4955752;29;20244;-69
2021/10/26 10:35:58;;;;;;;12.77;9.32;;;;;;;-139.48;100.00;61774.03;4941854;29;20050;-68
2021/10/26 10:38:42;;;;;;;14.20;8.73;;;;;;;-139.48;100.00;61774.03;4956184;29;20241;-69
2021/10/26 10:41:35;;;;;;;12.52;9.15;;;;;;;-139.48;100.00;61774.03;4956263;29;20512;-69
2021/10/26 10:44:19;;;;;;;14.55;8.63;;;;;;;-139.48;100.00;61774.03;4956553;28;20098;-68
2021/10/26 10:47:04;;;;;;;12.05;8.40;;;;;;;-139.48;100.00;61774.03;4956541;29;20098;-69
2021/10/26 10:49:49;;;;;;;13.23;8.55;;;;;;;-139.48;100.00;61774.03;4955691;29;20110;-68
2021/10/26 10:52:34;;;;;;;11.88;8.63;;;;;;;-139.48;100.00;61774.03;4955091;29;20049;-68
2021/10/26 10:55:23;;;;;;;12.48;8.77;;;;;;;-139.48;100.00;61774.03;4955084;28;20070;-68
2021/10/26 10:58:26;;;;;;;15.95;9.52;;;;;;;-139.48;100.00;61774.03;4955531;29;20094;-68
2021/10/26 11:01:32;;;;;;;13.68;10.23;;;;;;;-139.48;100.00;61774.03;4955217;29;20130;-68
2021/10/26 11:04:19;;;;;;;16.60;9.43;;;;;;;-139.48;100.00;61774.03;4954657;28;20049;-68
2021/10/26 11:07:03;;;;;;;13.75;8.98;;;;;;;-139.48;100.00;61774.03;4956136;29;20510;-68
2021/10/26 11:09:50;;;;;;;15.60;9.95;;;;;;;-139.48;100.00;61774.03;4955101;29;20046;-68
2021/10/26 11:12:36;;;;;;;16.98;8.93;;;;;;;-139.48;100.00;61774.03;4955161;29;20045;-68
2021/10/26 11:15:42;;;;;;;18.85;9.38;;;;;;;-139.48;100.00;61774.03;4954777;28;20050;-68
2021/10/26 11:18:46;;;;;;;13.80;9.77;;;;;;;-139.48;100.00;61774.03;4954677;29;20106;-68
2021/10/26 11:21:30;;;;;;;12.05;8.70;;;;;;;-139.48;100.00;61774.03;4954928;29;20159;-69
2021/10/26 11:24:15;;;;;;;14.13;9.25;;;;;;;-139.48;100.00;61774.03;4955675;28;20150;-69
2021/10/26 11:26:58;;;;;;;15.05;7.18;;;;;;;-139.48;100.00;61774.03;4954550;29;20481;-69
2021/10/26 11:29:42;;;;;;;10.65;8.10;;;;;;;-139.48;100.00;61774.03;4954787;29;20571;-69
2021/10/26 11:32:26;;;;;;;13.52;7.50;;;;;;;-139.48;100.00;61774.03;4954753;29;20058;-69
2021/10/26 11:35:17;;;;;;;11.00;7.65;;;;;;;-139.48;100.00;61774.03;4955490;28;20050;-69
2021/10/26 11:38:25;;;;;;;10.52;6.38;;;;;;;-139.48;100.00;61774.03;4954409;29;20093;-70
2021/10/26 11:41:12;;;;;;;9.10;6.45;;;;;;;-139.48;100.00;61774.03;4955584;29;20496;-70
2021/10/26 11:44:02;;;;;;;17.50;6.82;;;;;;;-139.48;100.00;61774.03;4954470;28;20054;-70
2021/10/26 11:46:49;;;;;;;13.07;6.10;;;;;;;-139.48;100.00;61774.03;4955315;29;20476;-70
2021/10/26 11:49:33;;;;;;;9.57;5.75;;;;;;;-139.48;100.00;61774.03;4954455;29;20519;-70
2021/10/26 11:52:17;;;;;;;8.18;5.25;;;;;;;-139.48;100.00;61774.03;4955542;29;20182;-70
2021/10/26 11:55:01;;;;;;;;;;;;;;;-139.48;100.00;61774.03;4940964;29;20420;-70
2021/10/26 11:57:45;;;;;;;11.68;7.40;;;;;;;-139.48;100.00;61774.03;4955365;29;19925;-70
2021/10/26 12:00:31;;;;;;;10.57;6.43;;;;;;;-139.48;100.00;61774.03;4955427;29;20094;-70
2021/10/26 12:03:17;;;;;;;8.38;5.93;;;;;;;-139.48;100.00;61774.03;4954409;29;20109;-70
2021/10/26 12:06:02;;;;;;;8.30;4.82;;;;;;;-139.48;100.00;61774.03;4954090;28;20062;-70
2021/10/26 12:08:55;;;;;;;7.25;4.32;;;;;;;-139.48;100.00;61774.03;4955262;29;20054;-70
2021/10/26 12:11:47;;;;;;;6.22;3.92;;;;;;;-139.48;100.00;61774.03;4955336;29;20057;-70
2021/10/26 12:14:32;;;;;;;8.07;4.05;;;;;;;-139.48;100.00;61774.03;4955811;28;20576;-70
2021/10/26 12:17:30;;;;;;;6.88;3.90;;;;;;;-139.48;100.00;61774.03;4957857;29;20058;-70
2021/10/26 12:20:24;;;;;;;7.35;4.18;;;;;;;-139.48;100.00;61774.03;4958168;29;20102;-70
2021/10/26 12:23:07;;;;;;;6.72;4.53;;;;;;;-139.48;100.00;61774.03;4958870;29;20045;-70
2021/10/26 12:25:56;;;;;;;7.28;4.63;;;;;;;-139.48;100.00;61774.03;4958685;28;20054;-70
2021/10/26 12:28:53;;;;;;;8.40;4.93;;;;;;;-139.48;100.00;61774.03;4958207;29;20058;-70